Aeroporto :
LOGIN :

Iscrizione | Disclaimer

   EN    FR    IT 

 










Sommario :    VFR   VFR Marginale   IFR   IFR Intensivo   IFR Molto Intensivo
Visibilità : 
Base nubi : 
>= 8 km
>= 3000ft
5 / 8 km
1000 / 3000 ft
1500m / 5 km
500 / 1000 ft
800 / 1500m
200 / 500 ft
< 800m
< 200 ft
Simboli :   Temporali  Nebbia  Neve Forte  Precipitazioni Forti  Vento > 20 kt
SIGMETs :   Varie  Temporali  Ghiacco  Turbolenza  Onda orograficha  Ceneri Vulcaniche






- Altitudine del aeroporto : 3 ft
- Codice IATA : DHR


EHKD - Den Helder De Kooy

ULTIMO METAR :
  • 131955Z AUTO 23018KT 200V260 9999 SCT019 BKN023 OVC200 16/13 Q1005 WHT

METARs OBSOLETI :
  • 131939Z AUTO 23017KT 9999 FEW023 SCT026 OVC200 16/13 Q1005 BLU
  • 131925Z AUTO 23018KT 200V260 9999 BKN110 OVC180 16/13 Q1005 BLU
  • 131855Z AUTO 23019KT 9999 OVC150 16/14 Q1004 BLU
  • 131825Z AUTO 23018KT 200V260 9999 OVC100 16/14 Q1004 BLU
  • 131809Z AUTO 22018G28KT 180V250 9999 FEW017 BKN095 OVC130 16/14 Q1004 BLU
  • 131800Z AUTO 22017KT 9999 FEW015CB SCT017 OVC100 16/14 Q1004 WHT
  • 131755Z AUTO 22016KT 190V250 9999 -DZRA FEW015CB SCT087 BKN098 16/15 Q1004 REDZ BLU
  • 131725Z AUTO 23021KT 200V260 9999 FEW015CB SCT084 BKN095 17/15 Q1003 BLU
  • 131714Z AUTO 22021KT 190V260 9999 -RA FEW015CB SCT026 BKN030 17/15 Q1003 BLU

TAF TAF EHKD
Valido dal 13 a 13 ore il 14 a 01 ore UTC


131301Z 1313/1401 19014KT FEW015 SCT040
BECMG 1313/1316 23020G32KT
PROB30
TEMPO 1313/1315 4000 SHRA SCT015 SCT060CB BKN070
TEMPO 1315/1318 25024G38KT 4000 SHRA RA SCT015 BKN030 SCT050CB
PROB40
TEMPO 1315/1318 25024G42KT 2500 TSRA SCT012 BKN025 SCT050CB
BECMG 1323/1401 24012G22KT



MetMap, La meteo Aeronautica in un colpo d'occhio ! - Copyright ORBIFLY Dicembre 2007 - Disclaimer

ORBIFLY MET'MAP TEAM :

Programmazione e sviluppo : Alexandra Zaïnal
Concezione e sviluppo : Baudouin d'Aumeries
Co-Programmazione e sviluppo : Marc-Olivier Méhu
Supporto tecnico e logistico : Manuel Goepfert
Aiuto per la traduzione : Arnaldo La Scala

Contatto : metmap@orbifly.com




FONTI E CREDITI :

   NOAA